createdAt,value
2022-12-23T00:00:32.038Z,86.20
2022-12-23T00:03:39.874Z,82.03
2022-12-23T00:06:45.568Z,90.45
2022-12-23T00:09:51.156Z,83.90
2022-12-23T00:13:15.434Z,81.47
2022-12-23T00:16:21.992Z,85.28
2022-12-23T00:19:27.870Z,74.88
2022-12-23T00:22:52.326Z,86.13
2022-12-23T00:25:58.733Z,81.18
2022-12-23T00:29:04.658Z,84.20
2022-12-23T00:32:10.653Z,83.03
2022-12-23T00:35:17.060Z,76.93
2022-12-23T00:38:41.881Z,87.90
2022-12-23T00:42:06.196Z,76.82
2022-12-23T00:45:17.320Z,88.10
2022-12-23T00:48:41.823Z,91.32
2022-12-23T00:51:47.538Z,83.03
2022-12-23T00:54:53.038Z,84.82
2022-12-23T00:57:59.432Z,86.40
2022-12-23T01:01:24.472Z,84.75
2022-12-23T01:04:49.377Z,80.28
2022-12-23T01:07:56.427Z,77.07
2022-12-23T01:11:07.811Z,79.88
2022-12-23T01:14:14.223Z,79.32
2022-12-23T01:17:20.394Z,92.50
2022-12-23T01:20:26.204Z,83.50
2022-12-23T01:23:33.695Z,79.10
2022-12-23T01:26:39.565Z,82.65
2022-12-23T01:29:46.953Z,90.00
2022-12-23T01:32:53.352Z,79.65
2022-12-23T01:36:04.054Z,86.78
2022-12-23T01:39:09.967Z,87.28
2022-12-23T01:42:38.007Z,73.50
2022-12-23T01:45:44.202Z,76.53
2022-12-23T01:48:52.909Z,85.35
2022-12-23T01:51:58.418Z,78.53
2022-12-23T01:55:04.600Z,80.13
2022-12-23T01:58:37.289Z,78.90
2022-12-23T02:02:02.041Z,83.97
2022-12-23T02:05:08.877Z,82.80
2022-12-23T02:08:36.603Z,73.90
2022-12-23T02:11:55.670Z,82.85
2022-12-23T02:15:41.433Z,82.90
2022-12-23T02:18:55.606Z,83.05
2022-12-23T02:22:10.910Z,89.20
2022-12-23T02:25:54.108Z,76.25
2022-12-23T02:29:34.597Z,76.95
2022-12-23T02:32:58.511Z,77.60
2022-12-23T02:36:13.596Z,77.93
2022-12-23T02:39:44.884Z,87.35
2022-12-23T02:43:05.211Z,76.53
2022-12-23T02:46:14.164Z,74.75
2022-12-23T02:49:33.907Z,88.15
2022-12-23T02:52:41.660Z,78.88
2022-12-23T02:55:49.902Z,80.60
2022-12-23T02:59:00.819Z,79.63
2022-12-23T03:02:07.025Z,85.50
2022-12-23T03:05:40.791Z,75.07
2022-12-23T03:08:46.507Z,81.53
2022-12-23T03:12:09.169Z,77.47
2022-12-23T03:15:23.906Z,77.25
2022-12-23T03:18:39.781Z,80.03
2022-12-23T03:21:48.051Z,84.38
2022-12-23T03:24:59.787Z,78.28
2022-12-23T03:28:15.723Z,80.13
2022-12-23T03:31:27.765Z,86.30
2022-12-23T03:34:40.816Z,80.85
2022-12-23T03:37:50.000Z,88.82
2022-12-23T03:41:04.183Z,91.88
2022-12-23T03:44:33.494Z,74.75
2022-12-23T03:47:52.799Z,83.60
2022-12-23T03:51:04.794Z,85.22
2022-12-23T03:54:19.887Z,91.07
2022-12-23T03:57:44.148Z,85.13
2022-12-23T04:01:02.162Z,85.25
2022-12-23T04:04:32.585Z,80.03
2022-12-23T04:07:43.624Z,81.15
2022-12-23T04:10:49.790Z,94.63
2022-12-23T04:13:55.596Z,83.35
2022-12-23T04:17:01.966Z,78.15
2022-12-23T04:20:08.423Z,79.10
2022-12-23T04:23:14.235Z,83.53
2022-12-23T04:26:19.849Z,76.65
2022-12-23T04:29:25.978Z,88.00
2022-12-23T04:32:31.789Z,79.38
2022-12-23T04:35:37.543Z,81.75
2022-12-23T04:38:43.780Z,79.03
2022-12-23T04:41:49.714Z,87.65
2022-12-23T04:44:56.176Z,83.57
2022-12-23T04:48:02.316Z,80.20
2022-12-23T04:51:08.227Z,83.63
2022-12-23T04:54:14.247Z,77.20
2022-12-23T04:57:19.681Z,79.30
2022-12-23T05:00:25.068Z,81.18
2022-12-23T05:03:31.474Z,79.97
2022-12-23T05:06:38.027Z,81.97
2022-12-23T05:09:43.294Z,76.13
2022-12-23T05:12:48.878Z,72.90
2022-12-23T05:15:55.825Z,78.57
2022-12-23T05:19:02.257Z,82.85
2022-12-23T05:22:08.336Z,76.45
2022-12-23T05:25:14.394Z,83.30
2022-12-23T05:28:23.563Z,86.63
2022-12-23T05:31:29.050Z,85.18
2022-12-23T05:34:34.915Z,92.40
2022-12-23T05:37:41.409Z,81.40
2022-12-23T05:40:47.439Z,79.75
2022-12-23T05:43:54.480Z,75.72
2022-12-23T05:47:00.854Z,81.93
2022-12-23T05:50:07.902Z,85.72
2022-12-23T05:53:13.666Z,75.95
2022-12-23T05:56:20.238Z,80.95
2022-12-23T05:59:30.998Z,75.30
2022-12-23T06:02:37.769Z,74.43
2022-12-23T06:05:44.702Z,70.97
2022-12-23T06:08:54.474Z,78.57
2022-12-23T06:12:05.323Z,79.32
2022-12-23T06:15:11.416Z,74.63
2022-12-23T06:18:17.203Z,70.53
2022-12-23T06:21:23.004Z,78.97
2022-12-23T06:24:28.898Z,73.03
2022-12-23T06:27:35.030Z,77.93
2022-12-23T06:30:40.683Z,77.63
2022-12-23T06:33:47.833Z,85.60
2022-12-23T06:36:54.484Z,80.28
2022-12-23T06:40:01.522Z,76.57
2022-12-23T06:43:07.667Z,86.28
2022-12-23T06:46:14.882Z,77.53
2022-12-23T06:49:22.496Z,81.53
2022-12-23T06:52:28.870Z,79.38
2022-12-23T06:55:35.609Z,82.03
2022-12-23T06:58:41.523Z,90.35
2022-12-23T07:01:47.887Z,91.25
2022-12-23T07:04:54.207Z,78.47
2022-12-23T07:08:00.532Z,85.32
2022-12-23T07:11:06.918Z,79.03
2022-12-23T07:14:13.499Z,82.25
2022-12-23T07:17:19.449Z,80.93
2022-12-23T07:20:25.792Z,82.13
2022-12-23T07:23:32.789Z,78.35
2022-12-23T07:26:39.488Z,91.85
2022-12-23T07:29:45.299Z,89.47
2022-12-23T07:36:42.828Z,88.30
2022-12-23T07:39:47.929Z,80.30
2022-12-23T07:42:58.641Z,79.43
2022-12-23T07:46:08.802Z,83.15
2022-12-23T07:49:14.518Z,88.85
2022-12-23T07:52:19.952Z,82.20
2022-12-23T07:55:25.203Z,83.35
2022-12-23T07:58:30.653Z,84.47
2022-12-23T08:01:36.066Z,88.85
2022-12-23T08:04:45.953Z,78.45
2022-12-23T08:07:52.431Z,86.50
2022-12-23T08:11:06.661Z,84.10
2022-12-23T08:14:12.274Z,81.38
2022-12-23T08:17:17.662Z,79.28
2022-12-23T08:20:23.278Z,81.15
2022-12-23T08:23:30.168Z,79.30
2022-12-23T08:26:35.429Z,82.85
2022-12-23T08:29:41.059Z,84.93
2022-12-23T08:32:46.714Z,73.82
2022-12-23T08:35:55.092Z,80.25
2022-12-23T08:39:04.147Z,79.63
2022-12-23T08:42:10.068Z,82.00
2022-12-23T08:45:16.267Z,89.50
2022-12-23T08:48:21.877Z,71.97
2022-12-23T08:51:28.021Z,72.03
2022-12-23T08:54:33.173Z,82.30
2022-12-23T08:57:39.179Z,78.10
2022-12-23T09:00:44.581Z,78.45
2022-12-23T09:03:51.458Z,82.55
2022-12-23T09:06:56.792Z,69.82
2022-12-23T09:10:02.383Z,72.93
2022-12-23T09:13:08.124Z,81.53
2022-12-23T09:16:14.335Z,79.25
2022-12-23T09:19:20.678Z,79.47
2022-12-23T09:22:26.060Z,79.75
2022-12-23T09:25:31.851Z,75.88
2022-12-23T09:28:37.911Z,75.55
2022-12-23T09:31:51.230Z,75.22
2022-12-23T09:35:01.838Z,77.07
2022-12-23T09:38:16.017Z,76.43
2022-12-23T09:41:53.995Z,72.80
2022-12-23T09:45:47.125Z,70.45
2022-12-23T09:49:10.820Z,83.30
2022-12-23T09:52:53.717Z,81.53
2022-12-23T09:59:46.280Z,81.57
2022-12-23T10:03:07.774Z,86.78
2022-12-23T10:06:28.642Z,85.70
2022-12-23T10:09:44.482Z,83.80
2022-12-23T10:12:56.714Z,76.75
2022-12-23T10:16:24.960Z,83.47
2022-12-23T10:19:54.088Z,80.50
2022-12-23T10:23:09.603Z,80.40
2022-12-23T10:26:34.535Z,76.93
2022-12-23T10:29:54.472Z,79.18
2022-12-23T10:33:12.954Z,82.13
2022-12-23T10:36:58.709Z,81.68
2022-12-23T10:40:33.071Z,84.35
2022-12-23T10:44:07.955Z,87.22
2022-12-23T10:47:30.333Z,82.07
2022-12-23T10:51:00.331Z,84.35
2022-12-23T10:54:38.133Z,87.28
2022-12-23T10:57:49.785Z,83.43
2022-12-23T11:01:18.863Z,81.10
2022-12-23T11:04:59.085Z,82.65
2022-12-23T11:08:50.226Z,79.05
2022-12-23T11:13:06.864Z,85.03
2022-12-23T11:17:12.186Z,79.32
2022-12-23T11:20:33.786Z,83.97
2022-12-23T11:23:51.606Z,76.60
2022-12-23T11:27:32.339Z,85.10
2022-12-23T11:31:09.482Z,77.10
2022-12-23T11:34:31.739Z,80.05
2022-12-23T11:38:01.783Z,81.03
2022-12-23T11:41:32.765Z,74.40
2022-12-23T11:45:22.061Z,77.95
2022-12-23T11:49:20.179Z,71.90
2022-12-23T11:52:49.605Z,76.25
2022-12-23T11:56:34.936Z,76.43
2022-12-23T12:00:10.623Z,75.10
2022-12-23T12:03:43.278Z,75.57
2022-12-23T12:07:08.249Z,82.63
2022-12-23T12:10:30.534Z,79.82
2022-12-23T12:14:14.789Z,75.93
2022-12-23T12:17:59.437Z,74.97
2022-12-23T12:25:28.452Z,71.97
2022-12-23T12:28:54.700Z,73.00
2022-12-23T12:33:08.764Z,69.35
2022-12-23T12:37:31.031Z,72.78
2022-12-23T12:41:39.087Z,79.03
2022-12-23T12:45:25.236Z,83.93
2022-12-23T12:49:14.395Z,78.25
2022-12-23T12:52:50.822Z,79.47
2022-12-23T12:57:09.053Z,82.75
2022-12-23T13:00:38.483Z,81.07
2022-12-23T13:04:37.147Z,82.30
2022-12-23T13:08:33.300Z,78.53
2022-12-23T13:12:26.201Z,80.03
2022-12-23T13:16:15.503Z,93.15
2022-12-23T13:19:49.766Z,80.32
2022-12-23T13:23:51.144Z,79.05
2022-12-23T13:27:36.686Z,77.77
2022-12-23T13:31:31.803Z,82.70
2022-12-23T13:35:13.790Z,90.85
2022-12-23T13:39:03.609Z,80.35
2022-12-23T13:42:54.672Z,80.38
2022-12-23T13:47:10.197Z,80.53
2022-12-23T13:51:08.824Z,79.75
2022-12-23T13:55:22.466Z,86.32
2022-12-23T13:58:58.605Z,93.32
2022-12-23T14:02:59.938Z,86.28
2022-12-23T14:06:45.759Z,105.72
2022-12-23T14:10:21.724Z,90.43
2022-12-23T14:14:12.615Z,91.78
2022-12-23T14:18:26.175Z,85.68
2022-12-23T14:22:20.521Z,89.18
2022-12-23T14:25:54.028Z,98.72
2022-12-23T14:29:42.959Z,95.10
2022-12-23T14:33:41.938Z,96.55
2022-12-23T14:37:45.355Z,90.47
2022-12-23T14:41:50.567Z,97.03
2022-12-23T14:45:54.166Z,102.10
2022-12-23T14:50:11.917Z,90.55
2022-12-23T14:53:51.351Z,96.60
2022-12-23T14:57:40.513Z,96.70
2022-12-23T15:01:33.337Z,104.22
2022-12-23T15:05:11.623Z,93.70
2022-12-23T15:08:39.626Z,90.13
2022-12-23T15:12:12.921Z,89.13
2022-12-23T15:15:52.603Z,93.30
2022-12-23T15:19:45.976Z,88.55
2022-12-23T15:23:15.310Z,93.07
2022-12-23T15:26:35.516Z,93.38
2022-12-23T15:29:55.020Z,95.90
2022-12-23T15:33:43.089Z,88.43
2022-12-23T15:36:43.080Z,102.10
2022-12-23T15:40:02.005Z,97.68
2022-12-23T15:43:26.769Z,101.18
2022-12-23T15:46:43.392Z,105.82
2022-12-23T15:49:58.711Z,102.40
2022-12-23T15:53:19.104Z,106.65
2022-12-23T15:56:40.932Z,115.72
2022-12-23T16:00:04.836Z,109.10
2022-12-23T16:04:05.408Z,112.57
2022-12-23T16:07:52.780Z,109.72
2022-12-23T16:11:27.786Z,108.93
2022-12-23T16:15:02.066Z,110.30
2022-12-23T16:18:28.578Z,105.80
2022-12-23T16:22:02.603Z,97.88
2022-12-23T16:25:54.818Z,105.45
2022-12-23T16:29:26.293Z,106.47
2022-12-23T16:33:00.129Z,109.50
2022-12-23T16:36:47.610Z,105.82
2022-12-23T16:40:28.512Z,108.95
2022-12-23T16:43:52.404Z,104.50
2022-12-23T16:47:20.826Z,100.40
2022-12-23T16:50:44.067Z,100.25
2022-12-23T16:54:06.866Z,97.85
2022-12-23T16:57:32.312Z,108.80
2022-12-23T17:01:07.263Z,107.93
2022-12-23T17:04:32.834Z,110.68
2022-12-23T17:07:56.080Z,112.85
2022-12-23T17:11:41.023Z,139.98
2022-12-23T17:15:11.686Z,109.80
2022-12-23T17:18:40.160Z,115.60
2022-12-23T17:22:24.323Z,104.00
2022-12-23T17:25:49.035Z,104.45
2022-12-23T17:29:18.713Z,111.45
2022-12-23T17:32:41.061Z,113.22
2022-12-23T17:36:02.911Z,112.28
2022-12-23T17:39:23.287Z,104.28
2022-12-23T17:42:33.281Z,102.20
2022-12-23T17:45:38.693Z,96.65
2022-12-23T17:48:47.237Z,97.40
2022-12-23T17:51:52.689Z,102.22
2022-12-23T17:54:58.495Z,94.80
2022-12-23T17:58:04.128Z,101.30
2022-12-23T18:01:23.734Z,100.65
2022-12-23T18:04:29.470Z,117.22
2022-12-23T18:07:34.760Z,96.25
2022-12-23T18:10:40.997Z,98.15
2022-12-23T18:13:48.300Z,104.88
2022-12-23T18:16:53.974Z,95.00
2022-12-23T18:19:59.515Z,90.90
2022-12-23T18:23:05.513Z,99.85
2022-12-23T18:26:15.476Z,100.15
2022-12-23T18:29:20.812Z,104.97
2022-12-23T18:32:28.324Z,95.78
2022-12-23T18:35:39.994Z,100.80
2022-12-23T18:38:45.442Z,94.53
2022-12-23T18:41:50.672Z,108.18
2022-12-23T18:44:56.243Z,101.93
2022-12-23T18:48:04.414Z,103.75
2022-12-23T18:51:15.345Z,104.13
2022-12-23T18:54:20.930Z,110.72
2022-12-23T18:57:26.521Z,109.53
2022-12-23T19:00:33.852Z,119.40
2022-12-23T19:03:40.098Z,103.72
2022-12-23T19:06:46.257Z,106.10
2022-12-23T19:09:51.697Z,104.95
2022-12-23T19:12:57.111Z,105.57
2022-12-23T19:16:02.543Z,102.20
2022-12-23T19:19:08.360Z,110.18
2022-12-23T19:22:13.663Z,102.35
2022-12-23T19:25:19.685Z,98.18
2022-12-23T19:28:24.899Z,109.43
2022-12-23T19:31:30.044Z,102.18
2022-12-23T19:34:35.867Z,108.13
2022-12-23T19:37:42.695Z,105.20
2022-12-23T19:40:57.698Z,102.50
2022-12-23T19:44:03.769Z,119.95
2022-12-23T19:47:09.417Z,103.32
2022-12-23T19:50:14.749Z,110.40
2022-12-23T19:53:19.974Z,107.95
2022-12-23T19:56:26.289Z,95.28
2022-12-23T19:59:31.727Z,106.72
2022-12-23T20:02:37.507Z,95.75
2022-12-23T20:05:50.846Z,92.22
2022-12-23T20:09:00.907Z,97.45
2022-12-23T20:12:07.429Z,93.95
2022-12-23T20:15:12.505Z,101.80
2022-12-23T20:18:17.453Z,97.65
2022-12-23T20:21:23.394Z,100.32
2022-12-23T20:24:28.571Z,104.63
2022-12-23T20:27:33.955Z,96.78
2022-12-23T20:30:39.732Z,101.43
2022-12-23T20:33:46.157Z,96.03
2022-12-23T20:36:51.584Z,101.68
2022-12-23T20:39:56.838Z,99.90
2022-12-23T20:43:03.433Z,94.50
2022-12-23T20:46:12.535Z,99.75
2022-12-23T20:49:17.894Z,96.05
2022-12-23T20:52:23.261Z,93.32
2022-12-23T20:55:29.045Z,89.95
2022-12-23T20:58:55.277Z,91.25
2022-12-23T21:02:01.418Z,92.72
2022-12-23T21:05:06.857Z,102.55
2022-12-23T21:08:12.226Z,100.85
2022-12-23T21:11:18.339Z,96.90
2022-12-23T21:14:23.794Z,96.55
2022-12-23T21:17:31.352Z,96.30
2022-12-23T21:20:37.744Z,96.38
2022-12-23T21:23:43.274Z,94.93
2022-12-23T21:26:55.390Z,90.70
2022-12-23T21:30:02.016Z,101.20
2022-12-23T21:33:07.502Z,97.43
2022-12-23T21:36:19.776Z,101.63
2022-12-23T21:39:26.179Z,97.60
2022-12-23T21:42:31.500Z,95.85
2022-12-23T21:45:37.079Z,102.95
2022-12-23T21:48:43.302Z,91.82
2022-12-23T21:51:48.551Z,99.13
2022-12-23T21:54:54.114Z,95.93
2022-12-23T21:57:59.719Z,97.18
2022-12-23T22:01:14.952Z,99.97
2022-12-23T22:04:20.560Z,103.10
2022-12-23T22:07:26.169Z,106.78
2022-12-23T22:10:31.760Z,102.53
2022-12-23T22:13:37.272Z,105.88
2022-12-23T22:16:43.394Z,99.45
2022-12-23T22:19:49.078Z,107.63
2022-12-23T22:22:54.985Z,102.25
2022-12-23T22:26:00.114Z,103.30
2022-12-23T22:29:07.197Z,101.18
2022-12-23T22:32:12.808Z,103.45
2022-12-23T22:35:18.141Z,99.60
2022-12-23T22:38:23.738Z,103.93
2022-12-23T22:41:30.533Z,106.22
2022-12-23T22:44:36.271Z,99.10
2022-12-23T22:47:41.611Z,122.30
2022-12-23T22:50:47.322Z,108.63
2022-12-23T22:53:53.703Z,105.10
2022-12-23T22:56:59.456Z,108.85
2022-12-23T23:00:11.972Z,112.13
2022-12-23T23:03:18.457Z,108.35
2022-12-23T23:06:32.422Z,106.95
2022-12-23T23:09:37.941Z,107.65
2022-12-23T23:12:44.800Z,107.60
2022-12-23T23:15:50.741Z,111.20
2022-12-23T23:18:56.395Z,108.00
2022-12-23T23:22:01.935Z,111.43
2022-12-23T23:25:07.526Z,111.43
2022-12-23T23:28:13.123Z,110.70
2022-12-23T23:34:44.674Z,110.00
2022-12-23T23:37:50.232Z,102.28
2022-12-23T23:40:57.497Z,112.82
2022-12-23T23:44:02.652Z,104.50
2022-12-23T23:47:08.200Z,109.45
2022-12-23T23:50:13.976Z,110.65
2022-12-23T23:53:19.798Z,105.20
2022-12-23T23:56:27.945Z,118.32
2022-12-23T23:59:35.596Z,111.57
